createdAt,value
2018-04-26T06:28:40.658Z,9.40
2018-04-26T06:48:46.024Z,9.50
2018-04-26T07:50:49.525Z,10.70
2018-04-26T07:53:17.373Z,10.80
2018-04-26T07:55:44.842Z,10.90
2018-04-26T07:58:23.267Z,10.90
2018-04-26T08:03:41.805Z,11.10
2018-04-26T08:06:09.358Z,11.20
2018-04-26T08:08:36.891Z,11.30
2018-04-26T08:19:56.071Z,11.50
2018-04-26T08:39:37.368Z,11.50
2018-04-26T08:51:09.829Z,11.50
2018-04-26T08:53:37.364Z,11.50
2018-04-26T08:56:04.883Z,11.50
2018-04-26T08:58:33.549Z,11.50
2018-04-26T09:01:01.442Z,11.60
2018-04-26T09:03:31.101Z,11.70
2018-04-26T09:11:59.523Z,11.80
2018-04-26T09:14:27.225Z,11.70
2018-04-26T09:16:54.746Z,11.80
2018-04-26T09:19:22.277Z,12.00
2018-04-26T09:21:51.507Z,12.20
2018-04-26T09:24:37.545Z,12.50
2018-04-26T09:27:05.092Z,12.80
2018-04-26T09:29:32.653Z,13.00
2018-04-26T09:32:00.431Z,13.30
2018-04-26T09:34:28.028Z,13.40
2018-04-26T09:36:55.525Z,13.50
2018-04-26T09:39:32.737Z,13.50
2018-04-26T09:48:11.801Z,13.50
2018-04-26T09:50:40.198Z,13.40
2018-04-26T09:53:07.680Z,13.40
2018-04-26T10:12:50.229Z,13.70
2018-04-26T10:15:17.841Z,13.80
2018-04-26T10:17:54.085Z,13.70
2018-04-26T10:23:02.224Z,13.70
2018-04-26T10:34:19.836Z,13.50
2018-04-26T10:36:47.576Z,13.40
2018-04-26T10:39:15.089Z,13.40
2018-04-26T10:41:42.646Z,13.30
2018-04-26T10:44:10.271Z,13.20
2018-04-26T10:46:38.493Z,13.20
2018-04-26T10:49:06.869Z,13.40
2018-04-26T10:51:34.389Z,13.40
2018-04-26T10:54:01.911Z,13.50
2018-04-26T10:56:29.596Z,13.50
2018-04-26T10:58:57.167Z,13.60
2018-04-26T11:01:24.741Z,13.50
2018-04-26T11:16:46.593Z,13.40
2018-04-26T11:19:15.318Z,13.40
2018-04-26T11:21:43.703Z,13.50
2018-04-26T11:24:12.078Z,13.60
2018-04-26T11:26:39.626Z,13.60
2018-04-26T11:29:07.151Z,13.70
2018-04-26T11:31:35.496Z,14.00
2018-04-26T11:34:03.009Z,13.90
2018-04-26T11:36:49.140Z,13.90
2018-04-26T11:39:16.788Z,13.90
2018-04-26T11:41:44.316Z,13.80
2018-04-26T11:44:12.698Z,13.60
2018-04-26T11:46:59.795Z,13.70
2018-04-26T11:49:28.152Z,14.00
2018-04-26T11:51:55.677Z,14.00
2018-04-26T11:54:23.202Z,14.40
2018-04-26T12:02:33.783Z,14.60
2018-04-26T12:05:02.186Z,14.50
2018-04-26T12:07:30.528Z,14.50
2018-04-26T12:09:58.085Z,14.50
2018-04-26T12:12:25.610Z,14.60
2018-04-26T12:14:53.122Z,14.80
2018-04-26T12:17:20.812Z,15.10
2018-04-26T12:19:49.117Z,15.70
2018-04-26T12:22:16.789Z,15.60
2018-04-26T12:24:44.381Z,15.90
2018-04-26T12:35:56.368Z,16.50
2018-04-26T12:38:24.713Z,16.20
2018-04-26T12:40:52.231Z,16.10
2018-04-26T12:43:19.806Z,15.90
2018-04-26T12:45:47.680Z,15.90
2018-04-26T12:48:15.406Z,16.00
2018-04-26T12:56:26.630Z,16.20
2018-04-26T12:58:59.048Z,16.50
2018-04-26T13:01:26.916Z,16.60
2018-04-26T13:03:54.421Z,16.60
2018-04-26T13:06:22.542Z,16.40
2018-04-26T13:08:50.284Z,16.30
2018-04-26T13:22:47.537Z,16.60
2018-04-26T13:25:18.215Z,16.60
2018-04-26T13:27:46.557Z,17.10
2018-04-26T13:30:14.130Z,17.00
2018-04-26T13:41:15.665Z,17.70
2018-04-26T13:43:46.464Z,17.70
2018-04-26T13:46:13.994Z,17.80
2018-04-26T13:48:41.574Z,17.80
2018-04-26T13:51:11.265Z,17.40
2018-04-26T14:07:59.324Z,17.60
2018-04-26T14:10:26.845Z,17.60
2018-04-26T14:12:54.332Z,17.60
2018-04-26T14:33:27.859Z,16.30
2018-04-26T14:35:55.464Z,16.10
2018-04-26T14:38:23.761Z,15.80
2018-04-26T14:46:47.344Z,15.50
2018-04-26T14:49:17.420Z,15.20
2018-04-26T14:51:45.777Z,15.10
2018-04-26T14:54:13.287Z,15.10
2018-04-26T14:56:40.761Z,15.00
2018-04-26T14:59:08.249Z,14.90
2018-04-26T15:01:35.731Z,14.90
2018-04-26T15:04:03.205Z,14.80
2018-04-26T15:06:31.099Z,14.80
2018-04-26T15:08:58.576Z,15.00
2018-04-26T15:11:27.882Z,15.40
2018-04-26T15:13:55.456Z,15.30
2018-04-26T15:16:23.758Z,16.10
2018-04-26T15:18:51.252Z,16.00
2018-04-26T15:33:03.037Z,16.70
2018-04-26T15:35:30.529Z,16.60
2018-04-26T15:38:03.989Z,16.30
2018-04-26T15:40:31.552Z,16.30
2018-04-26T15:42:59.098Z,16.10
2018-04-26T15:45:26.664Z,15.90
2018-04-26T15:51:07.362Z,15.40
2018-04-26T15:53:52.061Z,15.40
2018-04-26T15:56:32.021Z,15.20
2018-04-26T16:31:14.922Z,13.50
2018-04-26T16:33:54.560Z,13.40
2018-04-26T16:36:47.000Z,13.30
2018-04-26T16:53:55.425Z,13.00
2018-04-26T16:56:23.024Z,12.90
2018-04-26T16:58:50.566Z,12.70
2018-04-26T17:01:18.076Z,12.60
2018-04-26T17:03:46.519Z,12.60
2018-04-26T17:06:14.043Z,12.50
2018-04-26T17:08:41.568Z,12.50
2018-04-26T17:11:09.564Z,12.40
2018-04-26T17:13:51.024Z,12.30
2018-04-26T17:16:18.593Z,12.30
2018-04-26T17:18:46.114Z,12.30
2018-04-26T17:21:13.664Z,12.30
2018-04-26T17:23:41.990Z,12.30
2018-04-26T17:26:09.544Z,12.30
2018-04-26T17:28:37.056Z,12.30
2018-04-26T17:31:05.593Z,12.20
2018-04-26T17:33:38.115Z,12.20
2018-04-26T17:36:06.467Z,12.10
2018-04-26T17:38:33.993Z,12.10
2018-04-26T17:41:01.597Z,12.00
2018-04-26T17:43:29.169Z,12.00
2018-04-26T17:45:57.399Z,11.80
2018-04-26T17:48:24.846Z,11.80
2018-04-26T17:50:52.648Z,11.70
2018-04-26T17:53:29.912Z,11.60
2018-04-26T17:55:57.560Z,11.40
2018-04-26T17:58:25.140Z,11.30
2018-04-26T18:00:52.704Z,11.20
2018-04-26T18:03:20.369Z,11.10
2018-04-26T18:05:47.949Z,11.00
2018-04-26T18:08:15.549Z,11.00
2018-04-26T18:10:43.292Z,11.00
2018-04-26T18:13:12.701Z,11.00
2018-04-26T18:15:40.558Z,11.00
2018-04-26T18:21:13.224Z,11.00
2018-04-26T18:23:40.774Z,11.00
2018-04-26T18:26:08.291Z,11.00
2018-04-26T18:28:35.879Z,10.90
2018-04-26T18:31:03.504Z,10.90
2018-04-26T18:33:31.271Z,10.80
2018-04-26T18:35:59.652Z,10.70
2018-04-26T18:38:27.145Z,10.70
2018-04-26T18:40:54.624Z,10.60
2018-04-26T18:43:22.234Z,10.60
2018-04-26T18:45:53.629Z,10.50
2018-04-26T18:48:21.204Z,10.50
2018-04-26T18:50:48.765Z,10.50
2018-04-26T18:53:16.360Z,10.50
2018-04-26T18:55:43.851Z,10.50
2018-04-26T18:58:11.352Z,10.50
2018-04-26T19:00:39.883Z,10.40
2018-04-26T19:03:07.406Z,10.40
2018-04-26T19:05:35.771Z,10.30
2018-04-26T19:08:03.336Z,10.30
2018-04-26T19:10:30.837Z,10.30
2018-04-26T19:12:58.366Z,10.30
2018-04-26T19:15:26.850Z,10.20
2018-04-26T19:17:55.126Z,10.20
2018-04-26T19:20:23.374Z,10.20
2018-04-26T19:22:51.069Z,10.20
2018-04-26T19:25:19.300Z,10.20
2018-04-26T19:27:46.873Z,10.20
2018-04-26T19:30:14.498Z,10.20
2018-04-26T19:32:41.966Z,10.10
2018-04-26T19:38:10.201Z,10.10
2018-04-26T19:40:37.709Z,10.00
2018-04-26T19:43:05.182Z,10.00
2018-04-26T19:45:32.644Z,10.00
2018-04-26T19:50:50.928Z,9.90
2018-04-26T19:53:18.420Z,9.90
2018-04-26T19:55:46.635Z,9.80
2018-04-26T19:58:14.104Z,9.80
2018-04-26T20:00:41.605Z,9.80
2018-04-26T20:03:09.856Z,9.80
2018-04-26T20:05:37.336Z,9.70
2018-04-26T20:08:04.906Z,9.70
2018-04-26T20:10:33.357Z,9.70
2018-04-26T20:18:43.943Z,9.60
2018-04-26T20:21:11.446Z,9.50
2018-04-26T20:23:38.883Z,9.50
2018-04-26T20:26:06.757Z,9.40
2018-04-26T20:28:51.192Z,9.40
2018-04-26T20:31:18.707Z,9.40
2018-04-26T20:33:46.164Z,9.30
2018-04-26T20:36:13.908Z,9.30
2018-04-26T20:41:46.738Z,9.20
2018-04-26T20:44:26.342Z,9.10
2018-04-26T20:46:53.806Z,9.10
2018-04-26T20:52:40.173Z,9.00
2018-04-26T20:55:08.465Z,8.90
2018-04-26T21:06:08.276Z,8.90
2018-04-26T21:08:50.217Z,8.80
2018-04-26T21:11:17.773Z,8.80
2018-04-26T21:13:45.233Z,8.80
2018-04-26T21:16:12.688Z,8.70
2018-04-26T21:18:40.264Z,8.70
2018-04-26T21:21:07.737Z,8.70
2018-04-26T21:23:35.208Z,8.70
2018-04-26T21:26:02.683Z,8.60
2018-04-26T21:28:30.953Z,8.50
2018-04-26T21:30:58.784Z,8.50
2018-04-26T21:33:26.234Z,8.50
2018-04-26T21:35:53.676Z,8.50
2018-04-26T21:38:21.511Z,8.40
2018-04-26T21:40:49.731Z,8.40
2018-04-26T21:43:17.197Z,8.40
2018-04-26T21:45:47.136Z,8.30
2018-04-26T21:48:14.598Z,8.30
2018-04-26T21:50:47.893Z,8.30
2018-04-26T21:53:21.099Z,8.20
2018-04-26T21:55:55.304Z,8.10
2018-04-26T21:58:28.391Z,8.10
2018-04-26T22:01:01.657Z,8.00
2018-04-26T22:14:59.969Z,7.80
2018-04-26T22:17:27.485Z,7.80
2018-04-26T22:19:54.945Z,7.70
2018-04-26T22:25:14.784Z,7.70
2018-04-26T22:27:42.479Z,7.60
2018-04-26T22:30:09.936Z,7.60
2018-04-26T22:32:37.404Z,7.50
2018-04-26T22:35:05.064Z,7.50
2018-04-26T22:37:32.528Z,7.40
2018-04-26T22:40:00.074Z,7.40
2018-04-26T22:42:27.728Z,7.30
2018-04-26T22:44:55.204Z,7.30
2018-04-26T22:47:22.765Z,7.30
2018-04-26T22:49:50.488Z,7.30
2018-04-26T22:52:18.714Z,7.30
2018-04-26T22:54:46.164Z,7.20
2018-04-26T22:57:13.670Z,7.30
2018-04-26T22:59:41.912Z,7.20
2018-04-26T23:02:09.377Z,7.20
2018-04-26T23:04:36.873Z,7.20
2018-04-26T23:07:04.315Z,7.10
2018-04-26T23:09:32.528Z,7.10
2018-04-26T23:12:00.172Z,7.10
2018-04-26T23:14:27.628Z,7.10
2018-04-26T23:16:55.090Z,7.00
2018-04-26T23:19:25.176Z,7.00
2018-04-26T23:21:52.649Z,7.00
2018-04-26T23:24:20.881Z,6.90
2018-04-26T23:26:48.428Z,6.90
2018-04-26T23:29:15.899Z,6.80
2018-04-26T23:31:43.410Z,6.80
2018-04-26T23:34:11.255Z,6.80
2018-04-26T23:36:38.794Z,6.70
2018-04-26T23:39:06.233Z,6.70
2018-04-26T23:41:33.900Z,6.70
2018-04-26T23:44:01.379Z,6.70
2018-04-26T23:46:28.905Z,6.60
2018-04-26T23:48:56.391Z,6.60
2018-04-26T23:51:23.889Z,6.50
2018-04-26T23:53:52.213Z,6.50
2018-04-26T23:56:19.703Z,6.40
2018-04-26T23:58:47.201Z,6.40
